createdAt,value
2023-01-29T00:01:40.486Z,-0.65
2023-01-29T00:04:10.439Z,-0.64
2023-01-29T00:06:40.376Z,-0.60
2023-01-29T00:09:13.894Z,-0.59
2023-01-29T00:11:43.974Z,-0.57
2023-01-29T00:14:13.904Z,-0.60
2023-01-29T00:16:43.842Z,-0.56
2023-01-29T00:19:13.659Z,-0.56
2023-01-29T00:21:43.855Z,-0.57
2023-01-29T00:24:15.114Z,-0.65
2023-01-29T00:26:44.940Z,-0.74
2023-01-29T00:29:15.108Z,-0.74
2023-01-29T00:31:47.837Z,-0.74
2023-01-29T00:34:17.277Z,-0.75
2023-01-29T00:36:46.902Z,-0.74
2023-01-29T00:39:18.177Z,-0.68
2023-01-29T00:42:05.069Z,-0.64
2023-01-29T00:44:51.757Z,-0.62
2023-01-29T00:50:36.393Z,-0.64
2023-01-29T00:53:05.988Z,-0.61
2023-01-29T00:55:35.739Z,-0.57
2023-01-29T00:58:05.504Z,-0.58
2023-01-29T01:00:35.351Z,-0.55
2023-01-29T01:03:08.477Z,-0.55
2023-01-29T01:05:39.978Z,-0.57
2023-01-29T01:08:30.725Z,-0.55
2023-01-29T01:11:05.367Z,-0.56
2023-01-29T01:13:36.328Z,-0.54
2023-01-29T01:16:12.896Z,-0.51
2023-01-29T01:18:42.958Z,-0.50
2023-01-29T01:21:14.297Z,-0.49
2023-01-29T01:23:43.998Z,-0.48
2023-01-29T01:26:13.828Z,-0.47
2023-01-29T01:28:43.597Z,-0.45
2023-01-29T01:31:15.933Z,-0.47
2023-01-29T01:33:45.657Z,-0.46
2023-01-29T01:36:17.488Z,-0.48
2023-01-29T01:38:47.390Z,-0.51
2023-01-29T01:41:20.134Z,-0.48
2023-01-29T01:43:52.740Z,-0.52
2023-01-29T01:46:23.332Z,-0.51
2023-01-29T01:48:56.560Z,-0.47
2023-01-29T01:51:32.678Z,-0.47
2023-01-29T01:54:07.398Z,-0.46
2023-01-29T01:56:47.807Z,-0.46
2023-01-29T01:59:20.417Z,-0.46
2023-01-29T02:01:55.026Z,-0.46
2023-01-29T02:04:44.728Z,-0.46
2023-01-29T02:07:35.318Z,-0.45
2023-01-29T02:10:12.954Z,-0.45
2023-01-29T02:12:43.715Z,-0.44
2023-01-29T02:15:14.801Z,-0.45
2023-01-29T02:17:48.617Z,-0.46
2023-01-29T02:20:25.801Z,-0.47
2023-01-29T02:23:27.458Z,-0.49
2023-01-29T02:27:03.717Z,-0.47
2023-01-29T02:29:47.259Z,-0.46
2023-01-29T02:32:27.861Z,-0.45
2023-01-29T02:35:27.556Z,-0.43
2023-01-29T02:38:09.477Z,-0.48
2023-01-29T02:40:47.539Z,-0.54
2023-01-29T02:43:32.355Z,-0.53
2023-01-29T02:46:13.482Z,-0.55
2023-01-29T02:48:51.057Z,-0.57
2023-01-29T02:51:26.147Z,-0.62
2023-01-29T02:54:05.412Z,-0.69
2023-01-29T02:56:42.898Z,-0.70
2023-01-29T02:59:19.217Z,-0.70
2023-01-29T03:01:55.445Z,-0.66
2023-01-29T03:04:31.282Z,-0.63
2023-01-29T03:07:07.364Z,-0.62
2023-01-29T03:09:41.382Z,-0.57
2023-01-29T03:12:29.349Z,-0.51
2023-01-29T03:15:14.499Z,-0.52
2023-01-29T03:17:52.181Z,-0.55
2023-01-29T03:20:29.859Z,-0.54
2023-01-29T03:23:04.079Z,-0.55
2023-01-29T03:25:54.645Z,-0.55
2023-01-29T03:28:43.502Z,-0.59
2023-01-29T03:31:33.994Z,-0.59
2023-01-29T03:34:16.897Z,-0.56
2023-01-29T03:36:56.617Z,-0.60
2023-01-29T03:39:29.765Z,-0.61
2023-01-29T03:42:06.758Z,-0.60
2023-01-29T03:44:43.802Z,-0.62
2023-01-29T03:47:22.519Z,-0.62
2023-01-29T03:51:42.978Z,-0.59
2023-01-29T03:54:26.715Z,-0.63
2023-01-29T03:57:05.574Z,-0.63
2023-01-29T03:59:42.997Z,-0.57
2023-01-29T04:02:22.337Z,-0.62
2023-01-29T04:04:55.618Z,-0.71
2023-01-29T04:07:29.708Z,-0.70
2023-01-29T04:10:03.979Z,-0.73
2023-01-29T04:12:43.049Z,-0.74
2023-01-29T04:15:16.945Z,-0.73
2023-01-29T04:17:53.081Z,-0.69
2023-01-29T04:20:23.561Z,-0.67
2023-01-29T04:22:55.056Z,-0.66
2023-01-29T04:25:29.297Z,-0.65
2023-01-29T04:28:09.018Z,-0.67
2023-01-29T04:30:48.159Z,-0.72
2023-01-29T04:33:31.181Z,-0.72
2023-01-29T04:36:20.259Z,-0.79
2023-01-29T04:39:05.726Z,-0.78
2023-01-29T04:41:43.485Z,-0.73
2023-01-29T04:44:21.617Z,-0.72
2023-01-29T04:46:59.824Z,-0.76
2023-01-29T04:49:39.017Z,-0.91
2023-01-29T04:52:17.747Z,-0.99
2023-01-29T04:55:00.133Z,-0.97
2023-01-29T04:57:38.697Z,-0.91
2023-01-29T05:00:18.354Z,-0.92
2023-01-29T05:02:49.243Z,-0.90
2023-01-29T05:05:22.764Z,-0.95
2023-01-29T05:07:53.023Z,-0.95
2023-01-29T05:10:26.259Z,-1.03
2023-01-29T05:13:03.359Z,-0.98
2023-01-29T05:15:38.589Z,-0.89
2023-01-29T05:18:10.523Z,-0.82
2023-01-29T05:20:43.587Z,-0.84
2023-01-29T05:23:20.179Z,-0.86
2023-01-29T05:25:53.216Z,-0.90
2023-01-29T05:28:21.879Z,-0.90
2023-01-29T05:30:54.736Z,-0.96
2023-01-29T05:33:25.839Z,-1.00
2023-01-29T05:35:56.057Z,-0.99
2023-01-29T05:38:26.133Z,-0.91
2023-01-29T05:40:57.997Z,-0.92
2023-01-29T05:43:28.119Z,-0.96
2023-01-29T05:46:00.719Z,-0.97
2023-01-29T05:48:32.717Z,-0.94
2023-01-29T05:51:03.682Z,-0.94
2023-01-29T05:53:34.341Z,-0.92
2023-01-29T05:56:06.482Z,-0.95
2023-01-29T05:58:37.140Z,-0.91
2023-01-29T06:01:16.176Z,-0.85
2023-01-29T06:03:46.280Z,-0.87
2023-01-29T06:06:16.698Z,-0.87
2023-01-29T06:08:46.618Z,-0.87
2023-01-29T06:11:19.677Z,-0.95
2023-01-29T06:13:49.486Z,-0.97
2023-01-29T06:16:19.579Z,-0.97
2023-01-29T06:18:49.377Z,-0.91
2023-01-29T06:21:20.129Z,-0.86
2023-01-29T06:23:50.038Z,-0.88
2023-01-29T06:26:21.311Z,-0.86
2023-01-29T06:28:51.977Z,-0.79
2023-01-29T06:31:37.283Z,-0.74
2023-01-29T06:34:08.771Z,-0.73
2023-01-29T06:36:38.867Z,-0.73
2023-01-29T06:39:08.837Z,-0.72
2023-01-29T06:41:40.006Z,-0.71
2023-01-29T06:44:09.923Z,-0.57
2023-01-29T06:46:39.736Z,-0.39
2023-01-29T06:51:36.148Z,-0.54
2023-01-29T06:54:08.497Z,-0.55
2023-01-29T06:56:38.401Z,-0.50
2023-01-29T06:59:08.180Z,-0.46
2023-01-29T07:01:41.372Z,-0.44
2023-01-29T07:04:11.338Z,-0.43
2023-01-29T07:06:42.698Z,-0.40
2023-01-29T07:09:14.898Z,-0.42
2023-01-29T07:11:44.805Z,-0.43
2023-01-29T07:14:14.997Z,-0.49
2023-01-29T07:16:44.777Z,-0.49
2023-01-29T07:19:14.568Z,-0.51
2023-01-29T07:21:45.923Z,-0.34
2023-01-29T07:24:16.572Z,-0.35
2023-01-29T07:26:46.537Z,-0.34
2023-01-29T07:29:16.437Z,-0.39
2023-01-29T07:31:46.162Z,-0.37
2023-01-29T07:34:15.921Z,-0.40
2023-01-29T07:36:47.087Z,-0.39
2023-01-29T07:39:17.044Z,-0.40
2023-01-29T07:41:46.965Z,-0.39
2023-01-29T07:44:16.809Z,-0.37
2023-01-29T07:46:46.423Z,-0.39
2023-01-29T07:49:16.774Z,-0.37
2023-01-29T07:51:48.037Z,-0.38
2023-01-29T07:54:17.638Z,-0.36
2023-01-29T07:56:47.260Z,-0.34
2023-01-29T07:59:17.442Z,-0.36
2023-01-29T08:01:47.678Z,-0.34
2023-01-29T08:04:17.408Z,-0.35
2023-01-29T08:06:48.485Z,-0.33
2023-01-29T08:09:18.186Z,-0.30
2023-01-29T08:11:47.915Z,-0.26
2023-01-29T08:14:17.657Z,-0.20
2023-01-29T08:16:47.589Z,-0.10
2023-01-29T08:19:17.584Z,-0.04
2023-01-29T08:21:48.842Z,-0.02
2023-01-29T08:24:18.801Z,0.02
2023-01-29T08:26:48.619Z,-0.01
2023-01-29T08:29:18.349Z,0.00
2023-01-29T08:31:48.214Z,0.04
2023-01-29T08:34:17.914Z,0.04
2023-01-29T08:36:49.096Z,0.10
2023-01-29T08:39:18.714Z,0.09
2023-01-29T08:41:48.353Z,0.14
2023-01-29T08:44:18.233Z,0.08
2023-01-29T08:46:47.948Z,0.15
2023-01-29T08:49:17.726Z,0.15
2023-01-29T08:51:54.147Z,0.16
2023-01-29T08:54:23.985Z,0.20
2023-01-29T08:56:53.956Z,0.20
2023-01-29T08:59:23.873Z,0.16
2023-01-29T09:01:53.676Z,0.20
2023-01-29T09:04:23.437Z,0.43
2023-01-29T09:06:55.277Z,0.58
2023-01-29T09:09:25.178Z,0.65
2023-01-29T09:11:58.159Z,0.72
2023-01-29T09:14:27.998Z,0.71
2023-01-29T09:16:58.034Z,0.72
2023-01-29T09:19:27.824Z,0.75
2023-01-29T09:22:00.303Z,0.73
2023-01-29T09:24:30.297Z,0.71
2023-01-29T09:27:00.237Z,0.71
2023-01-29T09:29:30.039Z,0.70
2023-01-29T09:31:59.920Z,0.75
2023-01-29T09:34:29.936Z,0.76
2023-01-29T09:37:01.322Z,0.78
2023-01-29T09:39:31.182Z,0.75
2023-01-29T09:42:12.117Z,0.68
2023-01-29T09:44:59.288Z,0.51
2023-01-29T09:47:31.056Z,0.55
2023-01-29T09:51:43.343Z,0.55
2023-01-29T09:54:23.455Z,0.52
2023-01-29T09:56:57.979Z,0.56
2023-01-29T09:59:32.421Z,0.52
2023-01-29T10:02:12.995Z,0.52
2023-01-29T10:05:18.660Z,0.50
2023-01-29T10:08:29.757Z,0.49
2023-01-29T10:11:09.146Z,0.51
2023-01-29T10:13:49.338Z,0.48
2023-01-29T10:16:34.282Z,0.48
2023-01-29T10:19:44.338Z,0.38
2023-01-29T10:22:41.025Z,0.42
2023-01-29T10:25:17.410Z,0.41
2023-01-29T10:27:52.606Z,0.38
2023-01-29T10:30:33.961Z,0.36
2023-01-29T10:33:07.701Z,0.34
2023-01-29T10:35:42.918Z,0.34
2023-01-29T10:38:36.416Z,0.30
2023-01-29T10:41:35.457Z,0.33
2023-01-29T10:44:24.157Z,0.36
2023-01-29T10:47:14.369Z,0.39
2023-01-29T10:50:07.939Z,0.34
2023-01-29T10:52:53.441Z,0.43
2023-01-29T10:55:43.726Z,0.45
2023-01-29T10:58:29.506Z,0.48
2023-01-29T11:00:59.668Z,0.51
2023-01-29T11:03:32.405Z,0.52
2023-01-29T11:06:13.273Z,0.54
2023-01-29T11:08:51.160Z,0.60
2023-01-29T11:11:22.879Z,0.59
2023-01-29T11:14:00.793Z,0.63
2023-01-29T11:16:33.719Z,0.73
2023-01-29T11:19:03.916Z,0.81
2023-01-29T11:21:33.659Z,0.81
2023-01-29T11:24:17.741Z,0.82
2023-01-29T11:26:51.299Z,0.89
2023-01-29T11:29:40.580Z,0.87
2023-01-29T11:32:26.221Z,0.85
2023-01-29T11:35:04.542Z,0.75
2023-01-29T11:37:40.389Z,0.74
2023-01-29T11:40:37.884Z,0.67
2023-01-29T11:43:24.000Z,0.63
2023-01-29T11:45:59.297Z,0.63
2023-01-29T11:48:42.132Z,0.63
2023-01-29T11:51:21.977Z,0.66
2023-01-29T11:53:57.836Z,0.68
2023-01-29T11:56:34.365Z,0.68
2023-01-29T11:59:05.840Z,0.67
2023-01-29T12:01:41.065Z,0.68
2023-01-29T12:04:22.228Z,0.70
2023-01-29T12:06:54.516Z,0.70
2023-01-29T12:09:28.583Z,0.71
2023-01-29T12:11:59.325Z,0.70
2023-01-29T12:14:35.621Z,0.62
2023-01-29T12:17:13.476Z,0.60
2023-01-29T12:19:47.844Z,0.60
2023-01-29T12:22:27.283Z,0.59
2023-01-29T12:25:06.628Z,0.55
2023-01-29T12:27:44.001Z,0.54
2023-01-29T12:30:21.459Z,0.55
2023-01-29T12:33:00.593Z,0.54
2023-01-29T12:35:37.498Z,0.53
2023-01-29T12:38:18.553Z,0.47
2023-01-29T12:40:53.778Z,0.48
2023-01-29T12:43:31.858Z,0.44
2023-01-29T12:46:03.979Z,0.62
2023-01-29T12:51:40.880Z,0.60
2023-01-29T12:54:17.296Z,0.56
2023-01-29T12:56:49.883Z,0.52
2023-01-29T12:59:29.314Z,0.55
2023-01-29T13:02:04.363Z,0.65
2023-01-29T13:04:42.119Z,0.67
2023-01-29T13:07:19.259Z,0.67
2023-01-29T13:09:54.177Z,0.63
2023-01-29T13:12:25.863Z,0.61
2023-01-29T13:15:00.925Z,0.59
2023-01-29T13:17:37.479Z,0.60
2023-01-29T13:20:17.989Z,0.65
2023-01-29T13:22:51.158Z,0.72
2023-01-29T13:25:22.742Z,0.68
2023-01-29T13:27:53.677Z,0.70
2023-01-29T13:30:41.157Z,0.76
2023-01-29T13:33:17.087Z,0.80
2023-01-29T13:35:48.969Z,0.81
2023-01-29T13:38:28.686Z,0.79
2023-01-29T13:41:04.343Z,0.77
2023-01-29T13:43:40.758Z,0.80
2023-01-29T13:46:14.340Z,0.89
2023-01-29T13:48:47.018Z,0.90
2023-01-29T13:51:22.177Z,0.97
2023-01-29T13:54:01.381Z,0.99
2023-01-29T13:56:44.542Z,0.96
2023-01-29T13:59:26.056Z,0.94
2023-01-29T14:02:25.393Z,0.94
2023-01-29T14:05:34.201Z,0.90
2023-01-29T14:08:04.906Z,0.86
2023-01-29T14:10:37.981Z,0.84
2023-01-29T14:13:29.708Z,0.80
2023-01-29T14:16:36.772Z,0.83
2023-01-29T14:19:08.441Z,0.81
2023-01-29T14:21:40.017Z,0.81
2023-01-29T14:24:20.237Z,0.86
2023-01-29T14:26:57.196Z,0.95
2023-01-29T14:29:34.717Z,0.97
2023-01-29T14:32:20.177Z,1.02
2023-01-29T14:34:53.237Z,0.93
2023-01-29T14:37:31.295Z,0.93
2023-01-29T14:40:15.781Z,0.86
2023-01-29T14:42:59.917Z,0.82
2023-01-29T14:45:31.917Z,0.84
2023-01-29T14:48:39.848Z,0.90
2023-01-29T14:51:13.098Z,0.92
2023-01-29T14:54:00.113Z,0.86
2023-01-29T14:56:36.540Z,0.77
2023-01-29T14:59:19.843Z,0.70
2023-01-29T15:01:54.844Z,0.69
2023-01-29T15:04:29.757Z,0.69
2023-01-29T15:07:05.980Z,0.68
2023-01-29T15:09:49.562Z,0.65
2023-01-29T15:12:29.617Z,0.61
2023-01-29T15:15:22.765Z,0.55
2023-01-29T15:18:01.217Z,0.53
2023-01-29T15:20:34.579Z,0.49
2023-01-29T15:23:06.437Z,0.49
2023-01-29T15:25:48.858Z,0.46
2023-01-29T15:28:18.845Z,0.48
2023-01-29T15:30:57.419Z,0.47
2023-01-29T15:33:27.661Z,0.47
2023-01-29T15:36:08.928Z,0.46
2023-01-29T15:38:39.245Z,0.44
2023-01-29T15:41:21.060Z,0.48
2023-01-29T15:43:53.077Z,0.52
2023-01-29T15:46:29.951Z,0.55
2023-01-29T15:51:36.209Z,0.57
2023-01-29T15:54:08.962Z,0.54
2023-01-29T15:56:43.360Z,0.50
2023-01-29T15:59:20.697Z,0.47
2023-01-29T16:01:50.485Z,0.38
2023-01-29T16:04:26.057Z,0.37
2023-01-29T16:06:59.738Z,0.31
2023-01-29T16:09:31.419Z,0.23
2023-01-29T16:12:02.296Z,0.19
2023-01-29T16:14:33.926Z,0.21
2023-01-29T16:17:23.659Z,0.28
2023-01-29T16:19:59.861Z,0.31
2023-01-29T16:22:34.832Z,0.27
2023-01-29T16:25:06.720Z,0.36
2023-01-29T16:27:37.478Z,0.53
2023-01-29T16:30:08.689Z,0.52
2023-01-29T16:32:38.936Z,0.50
2023-01-29T16:35:15.029Z,0.40
2023-01-29T16:37:51.439Z,0.30
2023-01-29T16:40:32.797Z,0.28
2023-01-29T16:43:58.070Z,0.21
2023-01-29T16:46:35.160Z,0.22
2023-01-29T16:49:12.457Z,0.18
2023-01-29T16:51:42.737Z,0.19
2023-01-29T16:54:18.543Z,0.16
2023-01-29T16:56:50.797Z,0.18
2023-01-29T16:59:27.222Z,0.16
2023-01-29T17:01:58.677Z,0.07
2023-01-29T17:04:28.677Z,0.07
2023-01-29T17:07:02.514Z,-0.06
2023-01-29T17:09:37.096Z,-0.11
2023-01-29T17:12:10.242Z,-0.18
2023-01-29T17:14:42.337Z,-0.42
2023-01-29T17:17:19.177Z,-0.49
2023-01-29T17:19:49.241Z,-0.48
2023-01-29T17:22:18.884Z,-0.69
2023-01-29T17:24:51.840Z,-0.73
2023-01-29T17:27:24.143Z,-0.77
2023-01-29T17:29:53.899Z,-0.74
2023-01-29T17:32:23.716Z,-0.66
2023-01-29T17:34:54.158Z,-0.67
2023-01-29T17:37:24.216Z,-0.73
2023-01-29T17:39:56.551Z,-0.81
2023-01-29T17:42:26.537Z,-0.89
2023-01-29T17:44:56.145Z,-0.94
2023-01-29T17:47:26.397Z,-0.93
2023-01-29T17:49:58.197Z,-0.88
2023-01-29T17:52:28.181Z,-0.92
2023-01-29T17:54:59.463Z,-0.95
2023-01-29T17:57:30.609Z,-1.08
2023-01-29T18:00:02.157Z,-1.12
2023-01-29T18:02:32.085Z,-1.19
2023-01-29T18:05:01.829Z,-1.18
2023-01-29T18:07:31.661Z,-1.12
2023-01-29T18:10:02.820Z,-1.13
2023-01-29T18:12:32.616Z,-1.12
2023-01-29T18:15:02.347Z,-1.05
2023-01-29T18:17:32.296Z,-1.00
2023-01-29T18:20:02.216Z,-1.03
2023-01-29T18:22:31.867Z,-1.05
2023-01-29T18:25:03.082Z,-1.08
2023-01-29T18:27:33.017Z,-1.04
2023-01-29T18:30:02.866Z,-1.03
2023-01-29T18:32:32.798Z,-1.03
2023-01-29T18:35:02.574Z,-0.98
2023-01-29T18:37:32.278Z,-0.92
2023-01-29T18:40:03.601Z,-0.86
2023-01-29T18:42:36.337Z,-0.85
2023-01-29T18:45:07.057Z,-0.82
2023-01-29T18:47:37.097Z,-0.83
2023-01-29T18:51:36.260Z,-0.79
2023-01-29T18:54:06.280Z,-0.75
2023-01-29T18:56:36.113Z,-0.70
2023-01-29T18:59:06.674Z,-0.69
2023-01-29T19:01:36.739Z,-0.71
2023-01-29T19:04:06.679Z,-0.66
2023-01-29T19:06:38.075Z,-0.62
2023-01-29T19:09:08.146Z,-0.59
2023-01-29T19:11:37.900Z,-0.52
2023-01-29T19:14:07.776Z,-0.48
2023-01-29T19:16:37.519Z,-0.53
2023-01-29T19:19:07.258Z,-0.54
2023-01-29T19:21:38.479Z,-0.51
2023-01-29T19:24:12.138Z,-0.42
2023-01-29T19:26:41.930Z,-0.38
2023-01-29T19:29:11.769Z,-0.36
2023-01-29T19:31:41.668Z,-0.36
2023-01-29T19:34:11.592Z,-0.34
2023-01-29T19:36:43.342Z,-0.31
2023-01-29T19:39:15.085Z,-0.33
2023-01-29T19:41:44.953Z,-0.35
2023-01-29T19:44:15.022Z,-0.32
2023-01-29T19:46:45.794Z,-0.30
2023-01-29T19:49:15.838Z,-0.39
2023-01-29T19:51:48.082Z,-0.46
2023-01-29T19:54:17.860Z,-0.46
2023-01-29T19:56:47.659Z,-0.40
2023-01-29T19:59:17.501Z,-0.38
2023-01-29T20:01:47.166Z,-0.36
2023-01-29T20:04:17.798Z,-0.38
2023-01-29T20:06:49.143Z,-0.37
2023-01-29T20:09:19.268Z,-0.39
2023-01-29T20:11:49.243Z,-0.40
2023-01-29T20:14:18.986Z,-0.41
2023-01-29T20:16:48.841Z,-0.38
2023-01-29T20:19:20.430Z,-0.38
2023-01-29T20:21:51.778Z,-0.39
2023-01-29T20:24:21.499Z,-0.39
2023-01-29T20:26:51.739Z,-0.41
2023-01-29T20:29:21.600Z,-0.43
2023-01-29T20:31:51.577Z,-0.40
2023-01-29T20:34:21.360Z,-0.36
2023-01-29T20:36:52.659Z,-0.33
2023-01-29T20:39:22.429Z,-0.37
2023-01-29T20:41:52.208Z,-0.34
2023-01-29T20:44:21.999Z,-0.32
2023-01-29T20:46:51.841Z,-0.27
2023-01-29T20:49:22.159Z,-0.28
2023-01-29T20:51:53.339Z,-0.28
2023-01-29T20:54:23.437Z,-0.27
2023-01-29T20:56:53.517Z,-0.28
2023-01-29T20:59:23.289Z,-0.27
2023-01-29T21:01:53.373Z,-0.30
2023-01-29T21:04:23.519Z,-0.31
2023-01-29T21:06:54.777Z,-0.31
2023-01-29T21:09:24.481Z,-0.29
2023-01-29T21:11:54.279Z,-0.29
2023-01-29T21:14:24.177Z,-0.30
2023-01-29T21:16:54.065Z,-0.31
2023-01-29T21:19:23.877Z,-0.30
2023-01-29T21:21:55.157Z,-0.28
2023-01-29T21:24:25.217Z,-0.22
2023-01-29T21:26:55.760Z,-0.24
2023-01-29T21:29:25.461Z,-0.31
2023-01-29T21:31:55.329Z,-0.34
2023-01-29T21:34:25.338Z,-0.35
2023-01-29T21:36:56.678Z,-0.32
2023-01-29T21:39:26.779Z,-0.38
2023-01-29T21:42:19.537Z,-0.42
2023-01-29T21:44:49.265Z,-0.43
2023-01-29T21:47:18.898Z,-0.47
2023-01-29T21:51:35.460Z,-0.46
2023-01-29T21:54:05.458Z,-0.46
2023-01-29T21:56:35.357Z,-0.43
2023-01-29T21:59:05.180Z,-0.44
2023-01-29T22:01:37.287Z,-0.42
2023-01-29T22:04:09.996Z,-0.39
2023-01-29T22:06:41.200Z,-0.38
2023-01-29T22:09:10.921Z,-0.34
2023-01-29T22:11:41.808Z,-0.37
2023-01-29T22:14:11.898Z,-0.40
2023-01-29T22:16:41.681Z,-0.42
2023-01-29T22:19:11.638Z,-0.43
2023-01-29T22:21:43.224Z,-0.43
2023-01-29T22:24:13.148Z,-0.43
2023-01-29T22:26:43.062Z,-0.43
2023-01-29T22:29:14.878Z,-0.41
2023-01-29T22:31:44.717Z,-0.39
2023-01-29T22:34:16.256Z,-0.37
2023-01-29T22:36:47.457Z,-0.39
2023-01-29T22:39:17.281Z,-0.41
2023-01-29T22:41:47.543Z,-0.43
2023-01-29T22:44:17.436Z,-0.39
2023-01-29T22:46:47.493Z,-0.37
2023-01-29T22:49:17.686Z,-0.43
2023-01-29T22:52:10.037Z,-0.46
2023-01-29T22:54:41.448Z,-0.41
2023-01-29T22:57:14.087Z,-0.38
2023-01-29T22:59:44.136Z,-0.39
2023-01-29T23:02:14.195Z,-0.35
2023-01-29T23:04:47.299Z,-0.35
2023-01-29T23:07:18.599Z,-0.37
2023-01-29T23:09:48.697Z,-0.37
2023-01-29T23:12:18.797Z,-0.42
2023-01-29T23:14:48.516Z,-0.44
2023-01-29T23:17:19.679Z,-0.45
2023-01-29T23:19:49.423Z,-0.44
2023-01-29T23:22:20.756Z,-0.43
2023-01-29T23:24:50.532Z,-0.46
2023-01-29T23:27:19.737Z,-0.42
2023-01-29T23:29:51.010Z,-0.42
2023-01-29T23:32:23.156Z,-0.42
2023-01-29T23:34:53.016Z,-0.43
2023-01-29T23:37:24.296Z,-0.42
2023-01-29T23:39:54.639Z,-0.43
2023-01-29T23:42:24.622Z,-0.46
2023-01-29T23:44:54.360Z,-0.48
2023-01-29T23:47:24.199Z,-0.51
2023-01-29T23:49:54.097Z,-0.51
2023-01-29T23:52:25.317Z,-0.53
2023-01-29T23:54:55.097Z,-0.52
2023-01-29T23:57:24.896Z,-0.53
2023-01-29T23:59:54.807Z,-0.55
